This is the latest recevied weather packets stored in our database for station/object F5IOR-13. If no packets are shown the sender has not sent any weather packets the latest 10 day(s).
| Time | Temp. | Humidity | Pressure | Rain* | Wind** | Luminosity | Snow |
|---|---|---|---|---|---|---|---|
| 1777649909 | 23.33° C | 45% | 993.1 hPa | 0.25 mm | - | - | - |
| 1777648109 | 23.89° C | 44% | 993.1 hPa | 0.25 mm | - | - | - |
| 1777646309 | 23.89° C | 42% | 993.2 hPa | 0.25 mm | - | - | - |
| 1777644509 | 23.89° C | 42% | 993.4 hPa | 0.25 mm | - | - | - |
| 1777642709 | 22.78° C | 50% | 993.8 hPa | 0.25 mm | - | - | - |
| 1777640909 | 22.78° C | 48% | 994 hPa | 0 mm | - | - | - |
| 1777639109 | 22.78° C | 48% | 994.2 hPa | 0 mm | - | - | - |
| 1777637309 | 22.78° C | 50% | 994.5 hPa | 0 mm | - | - | - |
| 1777635509 | 22.22° C | 51% | 994.7 hPa | 0 mm | - | - | - |
| 1777633710 | 21.67° C | 54% | 995 hPa | 0 mm | - | - | - |
| 1777631909 | 21.67° C | 55% | 994.9 hPa | 0 mm | - | - | - |
| 1777630109 | 20.56° C | 60% | 995.1 hPa | 0 mm | - | - | - |
| 1777628309 | 20° C | 61% | 995.1 hPa | 0 mm | - | - | - |
| 1777627349 | 18.89° C | 65% | 994.9 hPa | 0 mm | - | - | - |
| 1777626389 | 18.89° C | 67% | 994.9 hPa | 0 mm | - | - | - |
| 1777625429 | 17.78° C | 71% | 994.8 hPa | 0 mm | - | - | - |
| 1777624469 | 16.67° C | 77% | 994.6 hPa | 0 mm | - | - | - |
| 1777623989 | 16.67° C | 77% | 994.6 hPa | 0 mm | - | - | - |
| 1777623510 | 16.67° C | 77% | 994.6 hPa | 0 mm | - | - | - |
| 1777623029 | 16.11° C | 78% | 994.4 hPa | 0 mm | - | - | - |
| 1777622549 | 16.11° C | 78% | 994.4 hPa | 0 mm | - | - | - |
| 1777622309 | 15.56° C | 81% | 994.3 hPa | 0 mm | - | - | - |
| 1777622069 | 15.56° C | 81% | 994.3 hPa | 0 mm | - | - | - |
| 1777621829 | 15.56° C | 81% | 994.3 hPa | 0 mm | - | - | - |
| 1777621589 | 15.56° C | 81% | 994.3 hPa | 0 mm | - | - | - |
* Rain latest hour (hover to see other rain measurements)
** Current wind speed in m/s (hover to see current wind gust speed)